Time;durP1;ratioP1;P1;durP2;ratioP2;P2;SDS_P1;SDS_P2;PMS_P1;PMS_P2;Temp;Humidity;BMP_temperature;BMP_pressure;BME280_temperature;BME280_humidity;BME280_pressure;Samples;Min_cycle;Max_cycle;Signal;HPM_P1;HPM_P2
2023/08/27 00:01:53;;;;;;;2.15;1.70;;;;;;;13.83;72.07;100769.03;10414842;28;20046;-81
2023/08/27 00:06:56;;;;;;;4.10;2.40;;;;;;;13.82;71.95;100761.88;10423199;28;20046;-81
2023/08/27 00:11:58;;;;;;;2.10;1.70;;;;;;;13.72;71.93;100762.88;10397852;28;20070;-81
2023/08/27 00:17:03;;;;;;;3.35;1.92;;;;;;;13.73;72.11;100756.25;10417017;28;20510;-80
2023/08/27 00:22:05;;;;;;;1.95;1.60;;;;;;;13.75;71.88;100748.50;10427354;28;20045;-80
2023/08/27 00:27:08;;;;;;;1.80;1.48;;;;;;;13.65;71.75;100747.81;10413170;28;20034;-81
2023/08/27 00:32:10;;;;;;;2.78;1.88;;;;;;;13.69;71.59;100726.78;10425750;28;20051;-78
2023/08/27 00:37:12;;;;;;;3.63;1.98;;;;;;;13.58;72.26;100734.41;10427625;28;20041;-82
2023/08/27 00:42:14;;;;;;;2.15;1.40;;;;;;;13.54;72.75;100709.38;10437591;28;20097;-78
2023/08/27 00:47:17;;;;;;;2.15;1.42;;;;;;;13.77;71.27;100695.78;10403514;28;20413;-81
2023/08/27 00:52:20;;;;;;;3.78;2.00;;;;;;;13.72;70.42;100693.94;10401226;28;20042;-84
2023/08/27 00:57:22;;;;;;;1.92;1.40;;;;;;;13.65;71.35;100703.69;10412293;28;20450;-81
2023/08/27 01:02:25;;;;;;;2.10;1.48;;;;;;;13.49;70.87;100711.38;10401176;28;20064;-82
2023/08/27 01:07:32;;;;;;;2.90;1.65;;;;;;;13.48;70.93;100715.25;10416380;28;20475;-83
2023/08/27 01:12:40;;;;;;;3.63;1.60;;;;;;;13.38;71.51;100719.00;10413960;28;20492;-80
2023/08/27 01:17:43;;;;;;;1.75;0.93;;;;;;;13.43;70.29;100718.09;10426847;28;20467;-81
2023/08/27 01:22:45;;;;;;;2.35;1.48;;;;;;;13.37;71.10;100711.84;10440722;28;20052;-84
2023/08/27 01:28:02;;;;;;;3.03;1.70;;;;;;;13.36;71.08;100729.47;10408742;28;20052;-81
2023/08/27 01:33:20;;;;;;;1.38;0.80;;;;;;;13.27;71.58;100729.34;10422461;28;20057;-81
2023/08/27 01:38:22;;;;;;;2.00;1.38;;;;;;;13.19;71.67;100737.44;10423855;28;20077;-81
2023/08/27 01:43:25;;;;;;;2.85;1.55;;;;;;;13.14;71.80;100731.97;10422402;28;20419;-81
2023/08/27 01:48:30;;;;;;;3.00;1.67;;;;;;;13.11;71.88;100738.06;10408735;28;20454;-83
2023/08/27 01:53:32;;;;;;;3.63;1.50;;;;;;;13.09;72.20;100727.34;10409645;28;20042;-81
2023/08/27 01:58:35;;;;;;;2.13;1.63;;;;;;;13.08;71.50;100722.16;10421574;28;20127;-83
2023/08/27 02:03:37;;;;;;;1.48;1.20;;;;;;;13.14;71.89;100719.00;10421595;28;20046;-80
2023/08/27 02:08:40;;;;;;;1.80;1.40;;;;;;;13.09;72.01;100729.28;10431689;28;20045;-82
2023/08/27 02:13:43;;;;;;;3.53;1.80;;;;;;;12.95;72.65;100741.03;10418970;28;20041;-81
2023/08/27 02:18:45;;;;;;;1.60;1.38;;;;;;;12.93;72.30;100743.25;10393890;28;20045;-80
2023/08/27 02:23:47;;;;;;;1.95;1.23;;;;;;;12.91;72.27;100745.50;10413234;28;20038;-81
2023/08/27 02:28:49;;;;;;;1.75;1.38;;;;;;;12.87;72.28;100744.44;10410488;28;20037;-83
2023/08/27 02:33:52;;;;;;;4.38;1.50;;;;;;;13.03;73.03;100722.22;10437779;28;20045;-79
2023/08/27 02:38:54;;;;;;;3.88;1.70;;;;;;;12.85;72.68;100719.13;10377346;28;20052;-82
2023/08/27 02:43:56;;;;;;;2.33;1.60;;;;;;;12.90;73.22;100712.72;10406848;28;20048;-80
2023/08/27 02:48:59;;;;;;;2.67;1.60;;;;;;;12.80;73.17;100705.41;10404225;28;20038;-80
2023/08/27 02:54:01;;;;;;;3.22;1.70;;;;;;;12.70;73.23;100705.56;10409888;28;20033;-82
2023/08/27 02:59:04;;;;;;;2.83;1.92;;;;;;;12.72;73.83;100708.81;10384405;28;20413;-79
2023/08/27 03:04:06;;;;;;;2.28;1.35;;;;;;;12.72;74.41;100697.00;10401509;28;20053;-80
2023/08/27 03:09:09;;;;;;;5.60;1.60;;;;;;;12.74;74.23;100690.06;10424485;28;20041;-82
2023/08/27 03:14:11;;;;;;;2.40;1.52;;;;;;;12.75;74.08;100691.72;10427372;28;20056;-80
2023/08/27 03:19:13;;;;;;;3.63;1.50;;;;;;;12.78;74.44;100691.13;10440695;28;20049;-82
2023/08/27 03:24:16;;;;;;;4.43;1.80;;;;;;;13.26;73.23;100683.63;10419874;28;20048;-81
2023/08/27 03:29:18;;;;;;;4.32;1.70;;;;;;;14.24;71.81;100671.78;10408024;28;20088;-79
2023/08/27 03:34:21;;;;;;;3.90;1.80;;;;;;;15.09;67.68;100671.16;10413075;28;20059;-81
2023/08/27 03:39:23;;;;;;;3.60;1.80;;;;;;;15.49;65.90;100680.47;10400194;28;20045;-81
2023/08/27 03:44:26;;;;;;;4.07;1.80;;;;;;;15.27;65.57;100684.03;10434245;28;20068;-80
2023/08/27 03:49:29;;;;;;;3.10;1.92;;;;;;;15.60;64.39;100681.06;10431961;28;20041;-81
2023/08/27 03:54:32;;;;;;;3.78;1.95;;;;;;;15.99;63.63;100666.53;10431493;28;20029;-81
2023/08/27 03:59:35;;;;;;;2.65;1.70;;;;;;;16.39;61.60;100664.59;10402464;28;20042;-80
2023/08/27 04:04:38;;;;;;;2.85;2.20;;;;;;;16.26;61.96;100663.56;10433927;28;20414;-83
2023/08/27 04:09:40;;;;;;;3.72;1.88;;;;;;;16.72;61.35;100655.97;10410214;28;20054;-81
2023/08/27 04:14:43;;;;;;;3.50;1.60;;;;;;;16.35;61.43;100651.72;10415349;28;20033;-82
2023/08/27 04:19:45;;;;;;;2.20;1.52;;;;;;;16.61;61.80;100654.56;10404534;28;20054;-80
2023/08/27 04:24:50;;;;;;;2.75;1.98;;;;;;;17.60;59.26;100655.72;10432945;28;20033;-81
2023/08/27 04:29:52;;;;;;;2.70;1.75;;;;;;;17.95;57.38;100645.41;10412007;28;20033;-81
2023/08/27 04:34:54;;;;;;;4.13;1.98;;;;;;;18.44;56.19;100654.22;10412336;28;20038;-81
2023/08/27 04:39:57;;;;;;;2.40;1.60;;;;;;;17.44;58.16;100645.09;10442989;28;20041;-83
2023/08/27 04:44:59;;;;;;;4.43;1.80;;;;;;;18.30;54.56;100663.56;10444904;28;20048;-81
2023/08/27 04:50:01;;;;;;;2.15;1.45;;;;;;;18.33;53.62;100667.66;10443692;28;20064;-81
2023/08/27 04:55:07;;;;;;;2.38;1.33;;;;;;;18.36;52.95;100665.03;10390160;28;20037;-83
2023/08/27 05:00:13;;;;;;;1.52;1.27;;;;;;;18.42;53.01;100664.84;10398434;28;20474;-79
2023/08/27 05:05:16;;;;;;;4.68;1.33;;;;;;;19.24;51.49;100667.00;10416975;28;20418;-86
2023/08/27 05:10:19;;;;;;;1.50;1.08;;;;;;;19.93;49.60;100670.34;10394273;28;20044;-83
2023/08/27 05:15:21;;;;;;;2.72;1.80;;;;;;;19.54;49.52;100650.25;10443387;28;20498;-82
2023/08/27 05:20:23;;;;;;;2.90;1.45;;;;;;;19.27;50.48;100657.19;10393508;28;20052;-83
2023/08/27 05:25:26;;;;;;;3.30;2.08;;;;;;;19.35;49.19;100659.06;10434633;28;20037;-82
2023/08/27 05:30:28;;;;;;;4.45;1.10;;;;;;;19.32;50.06;100647.81;10423635;28;20554;-80
2023/08/27 05:35:30;;;;;;;3.08;1.25;;;;;;;18.52;51.21;100637.50;10402760;28;20422;-81
2023/08/27 05:40:33;;;;;;;2.60;1.88;;;;;;;18.92;50.30;100631.59;10433961;28;20415;-83
2023/08/27 05:45:35;;;;;;;4.13;1.70;;;;;;;20.22;48.22;100630.38;10409550;28;20490;-82
2023/08/27 05:50:39;;;;;;;1.40;1.30;;;;;;;20.12;47.80;100631.63;10397816;28;20049;-81
2023/08/27 05:55:44;;;;;;;1.83;1.10;;;;;;;19.46;49.13;100629.69;10404363;28;20037;-80
2023/08/27 06:00:46;;;;;;;4.40;1.40;;;;;;;19.64;49.07;100646.25;10426291;28;20533;-80
2023/08/27 06:05:48;;;;;;;3.53;0.93;;;;;;;20.37;47.32;100646.44;10411344;28;20049;-82
2023/08/27 06:10:51;;;;;;;1.58;1.10;;;;;;;21.95;43.63;100643.31;10428027;28;20037;-83
2023/08/27 06:15:53;;;;;;;1.55;0.98;;;;;;;21.64;44.84;100632.88;10408098;28;20505;-80
2023/08/27 06:20:55;;;;;;;2.30;1.20;;;;;;;22.20;44.03;100637.59;10417813;28;20038;-81
2023/08/27 06:26:02;;;;;;;1.27;1.08;;;;;;;22.40;42.24;100647.75;10409292;28;20041;-84
2023/08/27 06:31:05;;;;;;;2.00;1.20;;;;;;;22.11;42.95;100631.41;10440735;28;20056;-81
2023/08/27 06:36:07;;;;;;;1.58;1.00;;;;;;;22.10;42.57;100627.78;10442186;28;20402;-80
2023/08/27 06:41:09;;;;;;;2.97;1.27;;;;;;;20.93;43.16;100632.72;10420057;28;20041;-81
2023/08/27 06:46:12;;;;;;;1.25;1.00;;;;;;;21.08;43.41;100626.44;10424791;28;20049;-83
2023/08/27 06:51:16;;;;;;;1.80;1.33;;;;;;;20.86;42.32;100626.94;10426700;28;20071;-82
2023/08/27 06:56:19;;;;;;;1.73;1.00;;;;;;;21.92;41.22;100627.28;10398563;28;20044;-83
2023/08/27 07:01:21;;;;;;;1.58;0.95;;;;;;;21.27;41.35;100635.00;10441131;28;20415;-83
2023/08/27 07:06:23;;;;;;;1.27;1.00;;;;;;;20.74;42.05;100650.06;10424069;28;20240;-81
2023/08/27 07:11:26;;;;;;;2.25;1.52;;;;;;;21.92;40.89;100632.06;10416051;28;20056;-81
2023/08/27 07:16:30;;;;;;;4.43;1.08;;;;;;;21.87;39.37;100633.16;10405615;28;20032;-85
2023/08/27 07:21:32;;;;;;;3.85;1.25;;;;;;;22.87;37.88;100618.91;10371601;28;20542;-80
2023/08/27 07:26:35;;;;;;;1.35;1.10;;;;;;;21.59;39.03;100619.19;10450240;28;20045;-81
2023/08/27 07:31:38;;;;;;;1.70;1.20;;;;;;;22.22;38.01;100616.53;10435221;28;20054;-83
2023/08/27 07:36:40;;;;;;;1.95;1.23;;;;;;;22.44;37.65;100612.28;10450044;28;20395;-82
2023/08/27 07:41:42;;;;;;;2.45;1.67;;;;;;;22.98;35.76;100617.19;10448867;28;20529;-82
2023/08/27 07:46:45;;;;;;;2.83;1.50;;;;;;;22.89;35.40;100624.94;10449242;28;20052;-81
2023/08/27 07:51:47;;;;;;;1.38;1.13;;;;;;;23.21;35.40;100616.47;10432321;28;20056;-82
2023/08/27 07:56:50;;;;;;;2.75;1.60;;;;;;;23.07;35.28;100626.16;10432531;28;20049;-81
2023/08/27 08:01:53;;;;;;;2.40;1.40;;;;;;;21.88;37.38;100626.38;10443153;28;20056;-80
2023/08/27 08:06:55;;;;;;;4.28;1.50;;;;;;;22.94;36.29;100616.28;10388353;28;20045;-81
2023/08/27 08:11:58;;;;;;;1.83;1.27;;;;;;;23.86;35.15;100623.03;10384397;28;20046;-80
2023/08/27 08:17:00;;;;;;;3.40;1.60;;;;;;;24.49;34.07;100622.56;10351712;28;20037;-80
2023/08/27 08:22:03;;;;;;;4.75;1.63;;;;;;;23.32;33.91;100614.69;10395743;28;20152;-79
2023/08/27 08:27:06;;;;;;;1.50;1.23;;;;;;;23.51;34.06;100602.69;10376052;28;20038;-80
2023/08/27 08:32:08;;;;;;;2.03;1.30;;;;;;;22.56;35.61;100612.19;10366716;28;20045;-83
2023/08/27 08:37:10;;;;;;;1.40;1.15;;;;;;;22.40;37.02;100594.63;10378103;28;20163;-83
2023/08/27 08:42:23;;;;;;;1.23;1.00;;;;;;;23.10;34.99;100611.47;10370198;28;20041;-88
2023/08/27 08:47:26;;;;;;;1.20;1.10;;;;;;;23.26;34.32;100605.81;10356392;28;20046;-85
2023/08/27 08:52:29;;;;;;;2.05;1.45;;;;;;;24.53;32.70;100600.19;10334438;28;20042;-87
2023/08/27 08:57:33;;;;;;;1.10;0.90;;;;;;;24.48;32.97;100606.13;10320607;28;20042;-84
2023/08/27 09:02:36;;;;;;;1.60;1.20;;;;;;;23.16;35.27;100595.16;10373539;28;20522;-88
2023/08/27 09:07:38;;;;;;;2.13;1.25;;;;;;;23.74;34.09;100589.56;10412515;28;20498;-82
2023/08/27 09:12:41;;;;;;;1.70;1.15;;;;;;;23.06;34.30;100588.16;10399524;28;20057;-83
2023/08/27 09:17:43;;;;;;;2.35;1.70;;;;;;;22.16;36.32;100600.38;10389387;28;20132;-84
2023/08/27 09:22:46;;;;;;;1.70;1.17;;;;;;;21.56;37.06;100597.56;10367493;28;20038;-85
2023/08/27 09:27:48;;;;;;;4.45;1.25;;;;;;;20.03;40.70;100595.53;10413964;28;20044;-85
2023/08/27 09:32:55;;;;;;;1.45;1.05;;;;;;;20.19;40.40;100590.09;10379132;28;20034;-87
2023/08/27 09:37:58;;;;;;;;;;;;;;;20.54;39.94;100593.28;10406177;28;20049;-83
2023/08/27 09:43:07;;;;;;;1.83;1.42;;;;;;;20.07;41.25;100596.47;10404008;28;19917;-83
2023/08/27 09:48:09;;;;;;;1.60;1.33;;;;;;;19.93;41.18;100603.50;10416314;28;20413;-86
2023/08/27 09:53:12;;;;;;;1.40;1.00;;;;;;;20.02;42.49;100585.56;10395975;28;20121;-84
2023/08/27 09:58:14;;;;;;;1.90;1.40;;;;;;;19.86;41.99;100595.75;10372460;28;20033;-85
2023/08/27 10:03:22;;;;;;;1.25;1.02;;;;;;;19.55;42.60;100585.09;10396032;28;20048;-83
2023/08/27 10:08:25;;;;;;;1.20;0.90;;;;;;;19.61;43.20;100585.69;10454850;28;20037;-86
2023/08/27 10:13:31;;;;;;;1.13;1.02;;;;;;;19.69;42.90;100590.34;10416344;28;20486;-82
2023/08/27 10:18:33;;;;;;;2.35;1.58;;;;;;;19.52;42.52;100594.91;10445593;28;20045;-84
2023/08/27 10:23:39;;;;;;;1.33;1.20;;;;;;;19.77;43.39;100589.44;10435114;28;20047;-79
2023/08/27 10:28:41;;;;;;;1.95;1.08;;;;;;;20.02;42.28;100595.88;10447791;28;20410;-82
2023/08/27 10:33:43;;;;;;;1.20;1.10;;;;;;;20.24;41.84;100592.66;10436764;28;20041;-79
2023/08/27 10:38:47;;;;;;;2.20;1.58;;;;;;;20.14;41.42;100596.72;10443783;28;20418;-83
2023/08/27 10:43:50;;;;;;;1.95;1.48;;;;;;;19.91;42.46;100587.16;10432388;28;20041;-78
2023/08/27 10:48:53;;;;;;;3.17;1.08;;;;;;;20.04;42.57;100582.44;10428473;28;20045;-81
2023/08/27 10:53:58;;;;;;;1.95;1.10;;;;;;;20.36;41.57;100577.91;10423704;28;20041;-82
2023/08/27 10:59:09;;;;;;;2.05;1.33;;;;;;;20.14;41.82;100577.22;10471246;28;20037;-81
2023/08/27 11:04:11;;;;;;;1.92;1.40;;;;;;;20.41;41.53;100572.94;10358073;28;20048;-81
2023/08/27 11:09:24;;;;;;;3.30;1.27;;;;;;;20.39;40.69;100577.22;10385512;28;20038;-82
2023/08/27 11:14:26;;;;;;;1.15;1.05;;;;;;;20.17;41.68;100579.31;10363528;28;20049;-80
2023/08/27 11:19:38;;;;;;;1.50;1.08;;;;;;;20.23;41.89;100559.56;10394919;28;20060;-82
2023/08/27 11:24:59;;;;;;;0.93;0.90;;;;;;;19.88;42.09;100557.22;10391799;28;20487;-79
2023/08/27 11:30:06;;;;;;;1.60;0.55;;;;;;;20.22;41.52;100539.25;10377123;28;20050;-83
2023/08/27 11:35:11;;;;;;;4.03;1.80;;;;;;;19.90;42.33;100540.97;10378542;28;20046;-80
2023/08/27 11:40:15;;;;;;;1.40;1.17;;;;;;;19.93;41.18;100525.53;10357487;28;20048;-82
2023/08/27 11:45:17;;;;;;;1.55;1.13;;;;;;;19.82;41.88;100511.28;10352440;28;20049;-82
2023/08/27 11:50:21;;;;;;;1.02;0.90;;;;;;;19.91;41.87;100511.16;10392593;28;20036;-80
2023/08/27 11:55:24;;;;;;;1.77;1.20;;;;;;;20.00;42.15;100509.88;10397335;28;20050;-83
2023/08/27 12:00:26;;;;;;;2.22;1.50;;;;;;;20.09;41.42;100513.34;10381575;28;20041;-80
2023/08/27 12:05:29;;;;;;;1.50;1.30;;;;;;;19.96;41.61;100516.47;10425593;28;20060;-81
2023/08/27 12:10:32;;;;;;;4.57;1.45;;;;;;;19.88;42.88;100516.25;10441675;28;20037;-80
2023/08/27 12:15:35;;;;;;;1.70;1.27;;;;;;;20.03;41.90;100513.94;10439899;28;20049;-79
2023/08/27 12:20:38;;;;;;;1.08;0.98;;;;;;;20.10;42.60;100523.34;10437355;28;20514;-80
2023/08/27 12:25:47;;;;;;;2.35;1.30;;;;;;;20.24;41.94;100536.09;10450649;28;20038;-80
2023/08/27 12:30:53;;;;;;;2.63;1.20;;;;;;;20.31;42.47;100541.94;10446717;28;20041;-86
2023/08/27 12:36:04;;;;;;;1.33;1.23;;;;;;;20.25;41.92;100540.53;10403494;28;20060;-82
2023/08/27 12:41:06;;;;;;;2.53;1.50;;;;;;;20.35;42.68;100556.78;10408225;28;20422;-81
2023/08/27 12:46:09;;;;;;;1.98;1.35;;;;;;;20.37;42.09;100569.22;10421186;28;20041;-80
2023/08/27 12:51:11;;;;;;;1.75;1.50;;;;;;;20.45;41.76;100559.94;10372209;28;20487;-83
2023/08/27 12:56:14;;;;;;;2.67;1.30;;;;;;;20.22;42.20;100552.38;10416482;28;20045;-81
2023/08/27 13:01:16;;;;;;;4.00;1.42;;;;;;;20.51;41.97;100551.34;10437945;28;20609;-80
2023/08/27 13:06:19;;;;;;;1.95;1.35;;;;;;;20.28;42.71;100548.19;10419702;28;20068;-80
2023/08/27 13:11:21;;;;;;;2.53;1.48;;;;;;;20.28;42.75;100548.19;10427827;28;20037;-83
2023/08/27 13:16:23;;;;;;;2.85;1.20;;;;;;;20.18;43.14;100547.50;10444893;28;20406;-80
2023/08/27 13:21:25;;;;;;;2.45;1.50;;;;;;;19.94;43.56;100541.09;10445057;28;20514;-83
2023/08/27 13:26:28;;;;;;;2.35;1.13;;;;;;;19.84;43.96;100534.81;10400326;28;20045;-84
2023/08/27 13:31:30;;;;;;;1.35;1.10;;;;;;;19.75;43.59;100527.72;10438026;28;20299;-84
2023/08/27 13:36:32;;;;;;;1.42;1.15;;;;;;;19.71;44.13;100524.00;10449072;28;20049;-83
2023/08/27 13:41:36;;;;;;;2.13;1.45;;;;;;;19.60;44.29;100520.84;10439264;28;20072;-81
2023/08/27 13:46:38;;;;;;;3.03;1.45;;;;;;;19.58;44.64;100526.75;10397245;28;20505;-84
2023/08/27 13:51:40;;;;;;;4.97;1.75;;;;;;;19.55;44.75;100530.22;10406326;28;20056;-85
2023/08/27 13:56:42;;;;;;;1.92;1.35;;;;;;;19.51;44.62;100532.06;10442826;28;20474;-86
2023/08/27 14:01:45;;;;;;;1.00;0.90;;;;;;;19.73;44.36;100535.59;10443104;28;20041;-85
2023/08/27 14:06:47;;;;;;;2.38;1.70;;;;;;;19.77;44.51;100526.22;10444303;28;20037;-85
2023/08/27 14:11:49;;;;;;;2.72;1.52;;;;;;;19.76;44.69;100532.13;10444029;28;20038;-85
2023/08/27 14:16:52;;;;;;;3.22;1.35;;;;;;;20.00;44.64;100537.75;10427770;28;20044;-82
2023/08/27 14:21:54;;;;;;;3.22;1.50;;;;;;;19.75;45.75;100530.50;10423338;28;20034;-83
2023/08/27 14:26:58;;;;;;;2.70;0.90;;;;;;;19.81;46.82;100507.66;10425675;28;20060;-85
2023/08/27 14:32:03;;;;;;;2.33;1.63;;;;;;;19.78;47.03;100522.25;10426369;28;20139;-84
2023/08/27 14:37:08;;;;;;;1.23;1.13;;;;;;;19.78;47.53;100535.38;10466754;28;20041;-84
2023/08/27 14:42:10;;;;;;;2.42;1.63;;;;;;;19.50;49.03;100526.84;10427714;28;20048;-83
2023/08/27 14:47:12;;;;;;;1.35;1.20;;;;;;;19.46;49.54;100518.38;10441576;28;20422;-85
2023/08/27 14:52:14;;;;;;;3.58;1.60;;;;;;;19.34;49.68;100518.31;10409625;28;20056;-83
2023/08/27 14:57:17;;;;;;;2.17;1.50;;;;;;;19.38;49.61;100524.00;10427319;28;20037;-83
2023/08/27 15:02:20;;;;;;;3.97;1.50;;;;;;;19.04;50.93;100528.75;10428688;28;20052;-84
2023/08/27 15:07:22;;;;;;;2.85;1.70;;;;;;;18.85;51.00;100517.31;10391622;28;20491;-83
2023/08/27 15:12:24;;;;;;;2.88;1.35;;;;;;;18.85;50.50;100518.09;10393260;28;20045;-82
2023/08/27 15:17:26;;;;;;;1.90;1.40;;;;;;;18.65;51.02;100513.38;10415507;28;20053;-80
2023/08/27 15:22:29;;;;;;;2.80;1.95;;;;;;;18.49;50.84;100523.41;10437808;28;20056;-84
2023/08/27 15:27:31;;;;;;;0.90;0.80;;;;;;;18.55;51.29;100522.06;10405671;28;20044;-82
2023/08/27 15:32:33;;;;;;;2.97;1.70;;;;;;;18.39;51.47;100538.50;10416298;28;20041;-81
2023/08/27 15:37:35;;;;;;;2.55;1.48;;;;;;;18.56;51.43;100532.03;10403644;28;20038;-84
2023/08/27 15:42:37;;;;;;;1.73;1.23;;;;;;;18.70;50.82;100532.63;10430354;28;20418;-81
2023/08/27 15:47:40;;;;;;;1.15;0.80;;;;;;;18.46;51.19;100519.34;10432051;28;20041;-81
2023/08/27 15:52:47;;;;;;;2.40;1.23;;;;;;;18.57;50.68;100525.31;10428251;28;20430;-80
2023/08/27 15:57:51;;;;;;;1.50;1.20;;;;;;;18.54;51.61;100526.00;10441982;28;20045;-82
2023/08/27 16:02:54;;;;;;;4.85;1.30;;;;;;;18.43;51.25;100536.72;10411260;28;20046;-84
2023/08/27 16:07:56;;;;;;;2.47;1.60;;;;;;;18.28;51.95;100532.53;10453537;28;20041;-83
2023/08/27 16:12:59;;;;;;;3.97;2.30;;;;;;;18.50;51.75;100525.06;10427524;28;20057;-81
2023/08/27 16:18:01;;;;;;;1.75;1.60;;;;;;;18.17;52.15;100533.25;10471859;28;20490;-81
2023/08/27 16:23:09;;;;;;;1.85;1.15;;;;;;;18.13;52.62;100530.34;10449271;28;20039;-81
2023/08/27 16:28:11;;;;;;;1.40;1.20;;;;;;;18.28;52.56;100529.75;10461149;28;20623;-83
2023/08/27 16:33:14;;;;;;;1.38;1.13;;;;;;;18.15;53.06;100535.56;10436611;28;20049;-81
2023/08/27 16:38:16;;;;;;;3.85;1.67;;;;;;;17.88;53.82;100529.31;10459031;28;20044;-82
2023/08/27 16:43:21;;;;;;;3.97;1.35;;;;;;;17.61;54.02;100533.28;10435713;28;20041;-80
2023/08/27 16:48:23;;;;;;;2.55;1.63;;;;;;;17.86;53.15;100533.53;10416077;28;20041;-82
2023/08/27 16:53:26;;;;;;;3.35;1.45;;;;;;;17.54;54.88;100537.72;10424409;28;20052;-80
2023/08/27 16:58:28;;;;;;;1.88;1.38;;;;;;;17.47;55.73;100527.13;10422344;28;20044;-83
2023/08/27 17:03:37;;;;;;;2.25;1.50;;;;;;;17.13;57.00;100528.00;10432929;28;20056;-81
2023/08/27 17:08:48;;;;;;;2.08;1.33;;;;;;;17.07;57.97;100530.13;10421593;28;20549;-80
2023/08/27 17:13:51;;;;;;;2.40;1.73;;;;;;;16.95;58.54;100552.13;10405571;28;20046;-80
2023/08/27 17:19:04;;;;;;;2.97;1.70;;;;;;;16.95;58.91;100560.44;10431509;28;20042;-82
2023/08/27 17:24:09;;;;;;;3.03;1.60;;;;;;;17.15;58.74;100556.19;10401801;28;20400;-82
2023/08/27 17:29:16;;;;;;;2.03;1.45;;;;;;;17.33;58.43;100543.13;10410363;28;20050;-81
2023/08/27 17:34:18;;;;;;;3.15;1.50;;;;;;;17.25;58.48;100543.97;10433062;28;20038;-82
2023/08/27 17:39:25;;;;;;;1.42;1.08;;;;;;;17.30;59.23;100554.88;10447014;28;20498;-82
2023/08/27 17:44:27;;;;;;;4.87;1.50;;;;;;;17.10;60.16;100562.72;10414639;28;20722;-81
2023/08/27 17:49:32;;;;;;;2.88;1.67;;;;;;;17.02;60.10;100571.88;10405140;28;20034;-82
2023/08/27 17:54:34;;;;;;;3.55;1.73;;;;;;;17.05;59.93;100562.91;10413103;28;20046;-81
2023/08/27 17:59:37;;;;;;;1.70;1.35;;;;;;;17.13;58.76;100559.31;10399290;28;20041;-81
2023/08/27 18:04:39;;;;;;;3.10;1.27;;;;;;;17.20;58.99;100569.09;10444374;28;20064;-81
2023/08/27 18:09:41;;;;;;;1.40;1.20;;;;;;;17.12;59.59;100577.09;10396467;28;20410;-82
2023/08/27 18:14:43;;;;;;;2.10;1.38;;;;;;;16.82;60.77;100578.03;10412022;28;20045;-81
2023/08/27 18:19:45;;;;;;;2.42;1.63;;;;;;;16.87;61.18;100597.31;10410758;28;20064;-80
2023/08/27 18:24:47;;;;;;;3.67;1.90;;;;;;;16.69;61.94;100596.47;10391666;28;20037;-83
2023/08/27 18:29:50;;;;;;;1.35;1.25;;;;;;;16.85;61.72;100591.28;10403116;28;20037;-82
2023/08/27 18:34:52;;;;;;;3.50;1.83;;;;;;;16.84;61.40;100597.97;10419944;28;20037;-83
2023/08/27 18:39:54;;;;;;;0.90;0.75;;;;;;;16.67;62.35;100590.44;10421813;28;20053;-82
2023/08/27 18:44:56;;;;;;;3.25;1.95;;;;;;;16.55;62.94;100593.78;10442810;28;20505;-81
2023/08/27 18:49:59;;;;;;;1.63;1.40;;;;;;;16.60;62.88;100595.59;10443478;28;20052;-83
2023/08/27 18:55:01;;;;;;;2.00;1.48;;;;;;;16.53;62.92;100587.75;10413342;28;20042;-82
2023/08/27 19:00:05;;;;;;;3.72;1.75;;;;;;;16.53;63.37;100598.03;10431953;28;20520;-83
2023/08/27 19:05:08;;;;;;;3.10;1.90;;;;;;;16.43;63.39;100595.53;10430106;28;20063;-81
2023/08/27 19:10:15;;;;;;;1.90;1.10;;;;;;;16.54;63.67;100594.13;10443815;28;20505;-81
2023/08/27 19:15:17;;;;;;;2.20;1.50;;;;;;;16.53;64.11;100603.56;10411642;28;20418;-81
2023/08/27 19:20:23;;;;;;;1.73;1.30;;;;;;;16.54;64.49;100600.47;10410304;28;20046;-80
2023/08/27 19:25:26;;;;;;;1.45;1.35;;;;;;;16.45;65.19;100605.16;10408639;28;20419;-84
2023/08/27 19:30:28;;;;;;;2.65;1.60;;;;;;;16.36;65.63;100592.44;10409253;28;20041;-84
2023/08/27 19:35:31;;;;;;;2.75;1.90;;;;;;;16.22;66.53;100590.59;10419127;28;20046;-82
2023/08/27 19:40:33;;;;;;;1.83;1.45;;;;;;;16.24;66.38;100581.97;10421094;28;20037;-82
2023/08/27 19:45:36;;;;;;;2.75;1.98;;;;;;;16.26;66.77;100597.13;10384311;28;20045;-79
2023/08/27 19:50:39;;;;;;;2.28;1.88;;;;;;;16.16;67.47;100589.09;10410463;28;20372;-81
2023/08/27 19:55:51;;;;;;;2.35;1.38;;;;;;;16.25;66.68;100594.66;10412805;28;20053;-82
2023/08/27 20:00:53;;;;;;;2.83;1.90;;;;;;;16.23;66.81;100605.25;10424047;28;20045;-82
2023/08/27 20:05:56;;;;;;;2.95;2.03;;;;;;;16.13;67.81;100611.06;10402762;28;20498;-84
2023/08/27 20:11:03;;;;;;;2.28;1.83;;;;;;;16.06;68.29;100621.78;10413813;28;20050;-80
2023/08/27 20:16:05;;;;;;;1.90;1.50;;;;;;;15.94;68.74;100634.25;10413714;28;20049;-80
2023/08/27 20:21:08;;;;;;;4.05;2.28;;;;;;;16.02;68.63;100637.41;10431101;28;20414;-82
2023/08/27 20:26:10;;;;;;;3.33;2.33;;;;;;;15.81;69.57;100639.88;10415067;28;20049;-83
2023/08/27 20:31:15;;;;;;;2.45;1.88;;;;;;;15.84;70.61;100637.31;10428064;28;20045;-80
2023/08/27 20:36:20;;;;;;;3.17;2.17;;;;;;;15.71;70.37;100635.41;10423935;28;20042;-82
2023/08/27 20:41:23;;;;;;;3.03;2.03;;;;;;;15.62;71.54;100654.75;10433490;28;20041;-79
2023/08/27 20:46:26;;;;;;;3.25;2.00;;;;;;;15.61;71.23;100621.84;10441798;28;20034;-83
2023/08/27 20:51:28;;;;;;;2.67;1.90;;;;;;;15.60;71.41;100628.50;10420882;28;20663;-85
2023/08/27 20:56:31;;;;;;;3.30;2.30;;;;;;;15.64;71.79;100637.81;10398583;28;21927;-80
2023/08/27 21:01:33;;;;;;;4.32;1.92;;;;;;;15.62;71.83;100656.69;10435148;28;20044;-80
2023/08/27 21:06:36;;;;;;;3.10;2.20;;;;;;;15.57;71.69;100642.94;10432945;28;20136;-82
2023/08/27 21:11:39;;;;;;;2.25;1.60;;;;;;;15.77;71.12;100647.16;10410144;28;20053;-81
2023/08/27 21:16:41;;;;;;;3.65;2.10;;;;;;;15.59;71.93;100633.22;10403245;28;20042;-81
2023/08/27 21:21:46;;;;;;;3.50;2.13;;;;;;;15.63;71.19;100636.19;10434193;28;20042;-80
2023/08/27 21:26:49;;;;;;;2.17;1.70;;;;;;;15.59;71.41;100651.75;10440012;28;20140;-83
2023/08/27 21:31:52;;;;;;;2.17;1.42;;;;;;;15.61;72.14;100660.56;10404691;28;20060;-81
2023/08/27 21:36:55;;;;;;;3.28;2.15;;;;;;;15.57;71.21;100676.13;10431605;28;20411;-81
2023/08/27 21:41:57;;;;;;;4.70;1.88;;;;;;;15.96;70.48;100667.97;10397120;28;20053;-82
2023/08/27 21:46:59;;;;;;;2.38;1.70;;;;;;;15.90;70.05;100668.41;10420199;28;20054;-84
2023/08/27 21:52:02;;;;;;;2.22;1.98;;;;;;;16.03;70.06;100662.00;10431669;28;20133;-84
2023/08/27 21:57:04;;;;;;;2.80;2.20;;;;;;;15.58;71.83;100664.75;10433309;28;20034;-83
2023/08/27 22:02:12;;;;;;;2.63;1.77;;;;;;;15.63;72.40;100655.56;10388934;28;20045;-83
2023/08/27 22:07:15;;;;;;;3.25;2.58;;;;;;;15.48;72.37;100666.97;10401464;28;20040;-81
2023/08/27 22:12:28;;;;;;;3.08;1.77;;;;;;;15.45;72.88;100656.53;10367068;28;20601;-78
2023/08/27 22:17:31;;;;;;;3.25;2.40;;;;;;;15.41;72.42;100653.53;10400802;28;20042;-84
2023/08/27 22:22:34;;;;;;;3.58;2.00;;;;;;;15.33;72.59;100637.72;10374856;28;20053;-83
2023/08/27 22:27:36;;;;;;;4.32;2.13;;;;;;;15.33;72.44;100641.31;10377638;28;20042;-83
2023/08/27 22:32:38;;;;;;;3.08;2.17;;;;;;;15.46;71.94;100631.31;10358072;28;20419;-81
2023/08/27 22:37:41;;;;;;;2.70;2.00;;;;;;;15.64;71.70;100626.75;10399959;28;20041;-80
2023/08/27 22:42:44;;;;;;;3.50;2.20;;;;;;;15.57;71.68;100629.91;10384284;28;20042;-85
2023/08/27 22:47:47;;;;;;;4.80;2.25;;;;;;;15.66;71.59;100633.59;10383576;28;20030;-82
2023/08/27 22:52:50;;;;;;;4.60;2.53;;;;;;;15.34;73.27;100626.34;10379393;28;20038;-82
2023/08/27 22:57:52;;;;;;;3.30;1.95;;;;;;;15.55;72.81;100620.31;10376103;28;20045;-79
2023/08/27 23:02:55;;;;;;;3.25;2.08;;;;;;;15.46;73.94;100625.78;10393514;28;20052;-83
2023/08/27 23:07:57;;;;;;;3.08;2.15;;;;;;;15.35;73.44;100608.63;10413783;28;20413;-80
2023/08/27 23:12:59;;;;;;;3.25;2.00;;;;;;;15.33;73.96;100619.19;10412885;28;20442;-81